Algoma Equinox — XJBH — position and weather

sailwx.info

Track history (hours):
 
Tides and Currents Weather Stations Pressure Air Temp Water Temp Dewpoint Dewpoint Depression Visibility Wind Speed Wind Dir Waves Ship Positions

Algoma Equinox

Last reported at 2018-Jan-22 15:00 UTC. Time now 2018-Jan-22 16:17 UTC.
Position N 48°24' W 089°12'.

Length 224 m; draft 8.1 m.

Type: Cargo ship. MMSI: 316009090.

Wind from 360 at 3 knots

Barometer 1023.4 mb
Air temperature -10.4 ° C
Dewpoint -13.4 ° C

Date/timePositionNaut miles runAvg speedWind from/ knotsBaromVisibWave heightAir tempDewpointWater temp
2018-Jan-22 15:00N 48°24' W 089°12'0 0.0 360 / 31023.4 -10.4-13.4
2018-Jan-22 14:00N 48°24' W 089°12'0 0.0 350 / 31023.5 -10.7-13.3
2018-Jan-22 13:00N 48°24' W 089°12'0 0.0 040 / 21023.6 -10.5-12.9
2018-Jan-22 12:00N 48°24' W 089°12'0 0.0 020 / 21023.9 -10.5-12.8
2018-Jan-22 11:00N 48°24' W 089°12'0 0.0 020 / 31024.0 -10.5-12.8
2018-Jan-22 10:00N 48°24' W 089°12'0 0.0 020 / 21024.6 -10.4-12.8
2018-Jan-22 09:00N 48°24' W 089°12'0 0.0 040 / 31024.4 -10.3-12.8
2018-Jan-22 08:00N 48°24' W 089°12'0 0.0 030 / 31024.4 -10.2-12.7
2018-Jan-22 07:00N 48°24' W 089°12'0 0.0 030 / 31024.8 -10.1-12.7
2018-Jan-22 06:00N 48°24' W 089°12'0 0.0 030 / 41025.1 -9.8-12.3
2018-Jan-22 05:00N 48°24' W 089°12'0 0.0 030 / 21025.1 -9.6-12.1
2018-Jan-22 04:00N 48°24' W 089°12'0 0.0 030 / 21024.6 -9.3-11.7
2018-Jan-22 03:00N 48°24' W 089°12'0 0.0 020 / 21024.1 -9.1-11.4
2018-Jan-22 02:00N 48°24' W 089°12'0 0.0 020 / 21023.6 -8.9-10.7
2018-Jan-22 01:00N 48°24' W 089°12'0 0.0 360 / 41023.4 -8.7-9.8
2018-Jan-22 00:00N 48°24' W 089°12'0 0.0 030 / 61023.0 -8.3-9.2
2018-Jan-21 23:00N 48°24' W 089°12'0 0.0 360 / 41022.5 -7.5-8.1
2018-Jan-21 22:00N 48°24' W 089°12'0 0.0 030 / 21021.6 -6.5-6.7
2018-Jan-21 21:00N 48°24' W 089°12'0 0.0 350 / 71020.9 -6.1-6.4
2018-Jan-21 20:00N 48°24' W 089°12'0 0.0 040 / 51020.0 -5.0-5.2
2018-Jan-21 19:00N 48°24' W 089°12'0 0.0 360 / 21019.4 -5.0-5.4
2018-Jan-21 17:00N 48°24' W 089°12'0 0.0 050 / 21019.7 -4.4-4.6
2018-Jan-21 15:00N 48°24' W 089°12'0 0.0 270
2018-Jan-21 14:00N 48°24' W 089°12'0 0.0 010 / 21017.7 -5.8-5.9
2018-Jan-21 13:00N 48°24' W 089°12'0 0.0 330 / 21017.1 -5.1-5.3
2018-Jan-21 12:00N 48°24' W 089°12'0 0.0 280 / 11016.9 -5.0-5.2
2018-Jan-21 10:00N 48°24' W 089°12'0 0.0 330 / 31016.7 -5.0-5.2
2018-Jan-21 09:00N 48°24' W 089°12'0 0.0 260 / 11016.5 -5.2-5.3
2018-Jan-21 08:00N 48°24' W 089°12'0 0.0 1016.3 -5.1-5.3
2018-Jan-21 07:00N 48°24' W 089°12'0 0.0 350 / 11015.7 -4.8-5.0
2018-Jan-21 06:00N 48°24' W 089°12'0 0.0 320 / 11015.4 -5.0-5.1
2018-Jan-21 05:00N 48°24' W 089°12'0 0.0 030 / 11015.2 -4.4-4.6
2018-Jan-21 04:00N 48°24' W 089°12'0 0.0 060 / 21014.8 -4.4-5.1
2018-Jan-21 03:00N 48°24' W 089°12'0 0.0 050 / 31015.0 -4.5-5.6
2018-Jan-21 02:00N 48°24' W 089°12'0 0.0 050 / 41014.7 -4.7-6.0
2018-Jan-21 01:00N 48°24' W 089°12'0 0.0 070 / 21014.3 -5.3-6.3
2018-Jan-21 00:00N 48°24' W 089°12'0 0.0 060 / 31013.8 -5.1-6.1
2018-Jan-20 23:00N 48°24' W 089°12'0 0.0 070 / 51013.1 -5.5-6.3
2018-Jan-20 22:00N 48°24' W 089°12'0 0.0 090 / 51012.6 -5.4-6.8
2018-Jan-20 21:00N 48°24' W 089°12'0 0.0 060 / 31012.3 -5.1-6.6
2018-Jan-20 20:00N 48°24' W 089°12'0 0.0 070 / 41011.7 -5.3-6.8
2018-Jan-20 19:00N 48°24' W 089°12'0 0.0 060 / 61011.7 -5.1-6.0
2018-Jan-20 18:00N 48°24' W 089°12'0 0.0 070 / 91011.3 -5.1-6.5
2018-Jan-20 17:00N 48°24' W 089°12'0 0.0 070 / 91011.1 -4.7-5.9
2018-Jan-20 16:00N 48°24' W 089°12'0 0.0 070 / 101009.9 -3.7-5.1
2018-Jan-20 15:00N 48°24' W 089°12'0 0.0 040 / 31008.3 1.7-1.5
2018-Jan-20 14:00N 48°24' W 089°12'0 0.0 340 / 21007.5 2.1-1.7
2018-Jan-20 13:00N 48°24' W 089°12'0 0.0 300 / 31006.3 2.2-1.7
2018-Jan-20 12:00N 48°24' W 089°12'0 0.0 280 / 41004.8 2.3-1.6
2018-Jan-20 11:00N 48°24' W 089°12'0 0.0 290 / 61003.8 2.1-1.6
2018-Jan-20 10:00N 48°24' W 089°12'0 0.0 280 / 111003.0 2.4-1.7
2018-Jan-20 09:00N 48°24' W 089°12'0 0.0 280 / 121002.5 2.8-1.6
2018-Jan-20 08:00N 48°24' W 089°12'0 0.0 290 / 81001.4 2.9-1.3
2018-Jan-20 07:00N 48°24' W 089°12'0 0.0 280 / 101000.0 3.0-1.2
2018-Jan-20 06:00N 48°24' W 089°12'0 0.0 280 / 12998.6 3.5-1.1
2018-Jan-20 05:00N 48°24' W 089°12'0 0.0 280 / 11997.0 4.2 0.3
2018-Jan-20 04:00N 48°24' W 089°12'0 0.0 280 / 12995.6 4.4 0.6
2018-Jan-20 03:00N 48°24' W 089°12'0 0.0 270 / 12994.6 4.6 0.6
2018-Jan-20 02:00N 48°24' W 089°12'0 0.0 280 / 10994.1 4.6 0.5
2018-Jan-20 01:00N 48°24' W 089°12'0 0.0 280 / 12993.7 4.5 0.5
2018-Jan-20 00:00N 48°24' W 089°12'0 0.0 250 / 4993.3 3.0-0.0
2018-Jan-19 23:00N 48°24' W 089°12'0 0.0 080 / 2993.0 0.8-0.9
2018-Jan-19 22:00N 48°24' W 089°12'0 0.0 993.9 0.9-1.0
2018-Jan-19 21:00N 48°24' W 089°12'0 0.0 230 / 1993.6 0.4-1.6
2018-Jan-19 20:00N 48°24' W 089°12'0 0.0 130 / 4994.2 -0.2-1.7
2018-Jan-19 19:00N 48°24' W 089°12'0 0.0 120 / 1994.8 -0.1-1.5
2018-Jan-19 18:00N 48°24' W 089°12'0 0.0 995.6 -0.1-1.4
2018-Jan-19 16:00N 48°24' W 089°12'0 0.0 020 / 1997.3 -1.1-1.9
2018-Jan-19 15:00N 48°24' W 089°12'0 0.0 020 / 4997.3 -1.9-2.5
2018-Jan-19 14:00N 48°24' W 089°12'0 0.0 010 / 3997.6 -3.0-3.4
2018-Jan-19 12:00N 48°24' W 089°12'0 0.0 090 / 21000.7 -4.8-5.0
2018-Jan-19 11:00N 48°24' W 089°12'0 0.0 140 / 11002.1 -4.1-4.3
2018-Jan-19 10:00N 48°24' W 089°12'0 0.0 260 / 21002.7 -3.0-3.6
2018-Jan-19 09:00N 48°24' W 089°12'0 0.0 240 / 11003.2 -3.4-3.8
2018-Jan-19 08:00N 48°24' W 089°12'0 0.0 1004.6 -3.7-4.1
2018-Jan-19 07:00N 48°24' W 089°12'0 0.0 060 / 31004.9 -3.2-3.4
2018-Jan-19 06:00N 48°24' W 089°12'0 0.0 070 / 31005.3 -3.1-3.4
2018-Jan-19 05:00N 48°24' W 089°12'0 0.0 080 / 31005.7 -3.0-3.7
2018-Jan-19 04:00N 48°24' W 089°12'0 0.0 030 / 11006.4 -2.9-3.8
2018-Jan-19 03:00N 48°24' W 089°12'0 0.0 050 / 11006.1 -3.0-3.7
2018-Jan-19 02:00N 48°24' W 089°12'0 0.0 030 / 21007.1 -3.1-4.2
2018-Jan-19 01:00N 48°24' W 089°12'0 0.0 010 / 11007.1 -3.5-4.3
2018-Jan-19 00:00N 48°24' W 089°12'0 0.0 1007.0 -3.0-5.0
2018-Jan-18 23:00N 48°24' W 089°12'0 0.0 260 / 51007.2 -3.0-5.1
2018-Jan-18 22:00N 48°24' W 089°12'0 0.0 270 / 41006.5 -3.2-5.1
2018-Jan-18 21:00N 48°24' W 089°12'0 0.0 250 / 31006.5 -3.4-5.1
2018-Jan-18 20:00N 48°24' W 089°12'0 0.0 250 / 41006.1 -4.0-5.7
2018-Jan-18 19:00N 48°24' W 089°12'0 0.0 280 / 51006.3 -4.8-6.2
2018-Jan-18 18:00N 48°24' W 089°12'0 0.0 250 / 21006.5 -5.2-6.5
2018-Jan-18 17:00N 48°24' W 089°12'0 0.0 290 / 11007.0 -5.4-6.4
2018-Jan-18 16:00N 48°24' W 089°12'0 0.0 280 / 11007.2 -6.4-7.2
2018-Jan-18 15:00N 48°24' W 089°12'0 0.0 310 / 21007.0 -7.5-8.3
2018-Jan-18 14:00N 48°24' W 089°12'0 0.0 350 / 21006.8 -8.2-9.3
2018-Jan-18 13:00N 48°24' W 089°12'0 0.0 030 / 31007.9 -8.9-10.4
2018-Jan-18 12:00N 48°24' W 089°12'0 0.0 050 / 31008.4 -9.9-11.3
2018-Jan-18 11:00N 48°24' W 089°12'0 0.0 050 / 11008.8 -11.5-12.8
2018-Jan-18 10:00N 48°24' W 089°12'0 0.0 040 / 31009.5 -13.4-14.8
2018-Jan-18 09:00N 48°24' W 089°12'0 0.0 1009.8 -11.0-13.0
2018-Jan-18 08:00N 48°24' W 089°12'0 0.0 300 / 51010.1 -8.4-10.9
2018-Jan-18 07:00N 48°24' W 089°12'0 0.0 300 / 31010.1 -8.8-11.5
2018-Jan-18 06:00N 48°24' W 089°12'0 0.0 280 / 41010.5 -8.8-11.6
2018-Jan-18 05:00N 48°24' W 089°12'0 0.0 270 / 41010.5 -7.8-11.1
2018-Jan-18 04:00N 48°24' W 089°12'0 0.0 250 / 11010.9 -7.6-11.0
2018-Jan-18 03:00N 48°24' W 089°12'0 0.0 1010.9 -6.7-10.3
2018-Jan-18 02:00N 48°24' W 089°12'0 0.0 250 / 21011.0 -4.6-10.3
2018-Jan-18 01:00N 48°24' W 089°12'0 0.0 280 / 31010.3 -4.2-10.1
2018-Jan-18 00:00N 48°24' W 089°12'0 0.0 280 / 81009.8 -3.1-10.2
2018-Jan-17 23:00N 48°24' W 089°12'0 0.0 290 / 31009.5 -2.6-10.3
2018-Jan-17 22:00N 48°24' W 089°12'0 0.0 280 / 41009.2 -2.0-10.8
2018-Jan-17 21:00N 48°24' W 089°12'0 0.0 290 / 41008.8 -1.9-11.3
2018-Jan-17 20:00N 48°24' W 089°12'0 0.0 280 / 71009.5 -2.6-11.9
2018-Jan-17 19:00N 48°24' W 089°12'0 0.0 270 / 151010.3 -3.9-13.8
2018-Jan-17 17:00N 48°24' W 089°12'0 0.0 240 / 41013.1 -6.2-15.3
2018-Jan-17 16:00N 48°24' W 089°12'0 0.0 280 / 51014.0 -7.3-14.6
2018-Jan-17 15:00N 48°24' W 089°12'0 0.0 260 / 41014.3 -7.7-14.1
2018-Jan-17 14:00N 48°24' W 089°12'0 0.0 260 / 51015.3 -8.1-14.5
2018-Jan-17 13:00N 48°24' W 089°12'0 0.0 250 / 61016.4 -8.0-15.0
2018-Jan-17 12:00N 48°24' W 089°12'0 0.0 250 / 61017.6 -8.7-15.0
2018-Jan-17 11:00N 48°24' W 089°12'0 0.0 250 / 71018.4 -9.7-15.1
2018-Jan-17 10:00N 48°24' W 089°12'0 0.0 260 / 81019.3 -9.8-15.2
2018-Jan-17 09:00N 48°24' W 089°12'0 0.0 260 / 81020.3 -9.5-15.3
2018-Jan-17 08:00N 48°24' W 089°12'0 0.0 260 / 61020.8 -9.9-15.3
2018-Jan-17 07:00N 48°24' W 089°12'0 0.0 250 / 91022.1 -10.4-16.1
2018-Jan-17 06:00N 48°24' W 089°12'0 0.0 250 / 91023.4 -10.9-16.3
2018-Jan-17 05:00N 48°24' W 089°12'0 0.0 250 / 91025.1 -11.0-16.5
2018-Jan-17 04:00N 48°24' W 089°12'0 0.0 250 / 91026.2 -11.5-16.4
2018-Jan-17 03:00N 48°24' W 089°12'0 0.0 260 / 61027.3 -11.8-16.4
2018-Jan-17 02:00N 48°24' W 089°12'0 0.0 270 / 81028.2 -12.2-16.1
2018-Jan-17 01:00N 48°24' W 089°12'0 0.0 270 / 91029.5 -12.4-15.8
2018-Jan-17 00:00N 48°24' W 089°12'0 0.0 250 / 91030.5 -12.3-15.8
2018-Jan-16 23:00N 48°24' W 089°12'0 0.0 250 / 71031.4 -11.8-15.5
2018-Jan-16 22:00N 48°24' W 089°12'0 0.0 260 / 71032.3 -11.6-15.7
2018-Jan-16 21:00N 48°24' W 089°12'0 0.0 280 / 111033.0 -11.6-16.4
2018-Jan-16 20:00N 48°24' W 089°12'0 0.0 270 / 101033.8 -11.6-15.6
2018-Jan-16 08:00N 48°24' W 089°12'0 0.0 320 / 71038.4 -13.9-16.1
2018-Jan-16 07:00N 48°24' W 089°12'0 0.0 330 / 101038.0 -13.1-15.2
2018-Jan-16 06:00N 48°24' W 089°12'0 0.0 330 / 61038.1 -12.3-14.5
2018-Jan-16 05:00N 48°24' W 089°12'0 0.0 350 / 71038.1 -12.0-14.4
2018-Jan-16 04:00N 48°24' W 089°12'0 0.0 350 / 101037.5 -11.5-14.1
2018-Jan-16 03:00N 48°24' W 089°12'0 0.0 350 / 111037.2 -11.0-13.7
2018-Jan-16 02:00N 48°24' W 089°12'0 0.0 350 / 121036.9 -10.4-13.1
2018-Jan-16 01:00N 48°24' W 089°12'0 0.0 350 / 111036.3 -10.3-12.8
2018-Jan-16 00:00N 48°24' W 089°12'0 0.0 360 / 101035.6 -10.1-12.4
2018-Jan-15 23:00N 48°24' W 089°12'0 0.0 360 / 111034.5 -8.6-10.8
2018-Jan-15 22:00N 48°24' W 089°12'0 0.0 020 / 41033.4 -6.9-9.1
2018-Jan-15 21:00N 48°24' W 089°12'0 0.0 040 / 91032.4 -6.5-8.4
2018-Jan-15 20:00N 48°24' W 089°12'0 0.0 020 / 51031.7 -7.5-8.7
2018-Jan-15 17:00N 48°24' W 089°12'0 0.0 020 / 41031.3 -8.9-10.2
2018-Jan-15 16:00N 48°24' W 089°12'0 0.0 350 / 61030.8 -9.7-11.2
2018-Jan-15 15:00N 48°24' W 089°12'0 0.0 350 / 91030.1 -9.8-11.2
2018-Jan-15 14:00N 48°24' W 089°12'0 0.0 360 / 31029.5 -10.1-11.2
2018-Jan-15 13:00N 48°24' W 089°12'0 0.0 030 / 21028.7 -10.1-11.0
2018-Jan-15 12:00N 48°24' W 089°12'0 0.0 050 / 61027.9 -10.2-11.3
2018-Jan-15 11:00N 48°24' W 089°12'0 0.0 060 / 81026.7 -9.9-10.6
2018-Jan-15 10:00N 48°24' W 089°12'0 0.0 050 / 71026.2 -10.1-10.9
2018-Jan-15 09:00N 48°24' W 089°12'0 0.0 050 / 91025.7 -10.4-11.2
2018-Jan-15 08:00N 48°24' W 089°12'0 0.0 030 / 71025.1 -10.5-11.5
2018-Jan-15 07:00N 48°24' W 089°12'0 0.0 040 / 21024.6 -10.5-11.4
2018-Jan-15 06:00N 48°24' W 089°12'0 0.0 320 / 21024.2 -10.5-11.3
2018-Jan-15 05:00N 48°24' W 089°12'0 0.0 260 / 31023.9 -10.3-11.3
2018-Jan-15 04:00N 48°24' W 089°12'0 0.0 230 / 21023.5 -9.8-10.7
2018-Jan-15 03:00N 48°24' W 089°12'0 0.0 180 / 31023.3 -9.9-11.2
2018-Jan-15 02:00N 48°24' W 089°12'0 0.0 160 / 151022.5 -10.0-10.8
2018-Jan-15 01:00N 48°24' W 089°12'0 0.0 160 / 171022.5 -10.3-11.2
2018-Jan-15 00:00N 48°24' W 089°12'0 0.0 160 / 181022.5 -10.5-11.5
2018-Jan-14 23:00N 48°24' W 089°12'0 0.0 160 / 141022.9 -10.7-11.6
2018-Jan-14 22:00N 48°24' W 089°12'0 0.0 130 / 41023.1 -12.1-13.6
2018-Jan-14 21:00N 48°24' W 089°12'0 0.0 070 / 31023.7 -12.8-14.2
2018-Jan-14 20:00N 48°24' W 089°12'0 0.0 050 / 31024.8 -14.9-16.7
2018-Jan-14 19:00N 48°24' W 089°12'0 0.0 050 / 31026.0 -16.6-18.9
2018-Jan-14 18:00N 48°24' W 089°12'0 0.0 360 / 31027.3 -18.8-21.0
2018-Jan-14 16:00N 48°24' W 089°12'0 0.0 270 / 11030.3 -22.1-24.4
2018-Jan-14 15:00N 48°24' W 089°12'0 0.0 270 / 21030.9 -23.7-26.3
2018-Jan-14 14:00N 48°24' W 089°12'0 0.0 280 / 51031.6 -25.0-27.6
2018-Jan-14 13:00N 48°24' W 089°12'0 0.0 280 / 31032.0 -24.3-26.8
2018-Jan-14 12:00N 48°24' W 089°12'0 0.0 350 / 11033.3 -24.7-27.3
2018-Jan-14 11:00N 48°24' W 089°12'0 0.0 290 / 11033.9 -24.2-26.8
2018-Jan-14 10:00N 48°24' W 089°12'0 0.0 290 / 21034.5 -23.9-26.7
2018-Jan-14 09:00N 48°24' W 089°12'0 0.0 280 / 21035.1 -23.4-26.4
2018-Jan-14 08:00N 48°24' W 089°12'0 0.0 300 / 21035.3 -23.2-26.0
2018-Jan-14 07:00N 48°24' W 089°12'0 0.0 280 / 31035.5 -23.1-25.8
2018-Jan-14 06:00N 48°24' W 089°12'0 0.0 280 / 41036.0 -22.1-25.2
2018-Jan-14 05:00N 48°24' W 089°12'0 0.0 280 / 91036.1 -21.9-25.0
2018-Jan-14 04:00N 48°24' W 089°12'0 0.0 270 / 121036.1 -21.4-24.4
2018-Jan-14 03:00N 48°24' W 089°12'0 0.0 270 / 121036.3 -21.0-23.8
2018-Jan-14 02:00N 48°24' W 089°12'0 0.0 270 / 101036.4 -20.0-23.3
2018-Jan-14 01:00N 48°24' W 089°12'0 0.0 260 / 51036.3 -19.4-22.7
2018-Jan-14 00:00N 48°24' W 089°12'0 0.0 270 / 71036.2 -18.2-22.2
2018-Jan-13 23:00N 48°24' W 089°12'0 0.0 280 / 51036.2 -17.6-21.9
2018-Jan-12 15:00N 48°24' W 089°12'   280 / 81032.4 -26.0
Track history (hours):
 
Tides and Currents Weather Stations Pressure Air Temp Water Temp Dewpoint Dewpoint Depression Visibility Wind Speed Wind Dir Waves Ship Positions

Algoma Equinox

Last reported at 2018-Jan-22 15:00 UTC. Time now 2018-Jan-22 16:17 UTC.
Position N 48°24' W 089°12'.

Length 224 m; draft 8.1 m.

Type: Cargo ship. MMSI: 316009090.

Wind from 360 at 3 knots

Barometer 1023.4 mb
Air temperature -10.4 ° C
Dewpoint -13.4 ° C

Date/timePositionNaut miles runAvg speedWind from/ knotsBaromVisibWave heightAir tempDewpointWater temp
2018-Jan-22 15:00N 48°24' W 089°12'0 0.0 360 / 31023.4 -10.4-13.4
2018-Jan-22 14:00N 48°24' W 089°12'0 0.0 350 / 31023.5 -10.7-13.3
2018-Jan-22 13:00N 48°24' W 089°12'0 0.0 040 / 21023.6 -10.5-12.9
2018-Jan-22 12:00N 48°24' W 089°12'0 0.0 020 / 21023.9 -10.5-12.8
2018-Jan-22 11:00N 48°24' W 089°12'0 0.0 020 / 31024.0 -10.5-12.8
2018-Jan-22 10:00N 48°24' W 089°12'0 0.0 020 / 21024.6 -10.4-12.8
2018-Jan-22 09:00N 48°24' W 089°12'0 0.0 040 / 31024.4 -10.3-12.8
2018-Jan-22 08:00N 48°24' W 089°12'0 0.0 030 / 31024.4 -10.2-12.7
2018-Jan-22 07:00N 48°24' W 089°12'0 0.0 030 / 31024.8 -10.1-12.7
2018-Jan-22 06:00N 48°24' W 089°12'0 0.0 030 / 41025.1 -9.8-12.3
2018-Jan-22 05:00N 48°24' W 089°12'0 0.0 030 / 21025.1 -9.6-12.1
2018-Jan-22 04:00N 48°24' W 089°12'0 0.0 030 / 21024.6 -9.3-11.7
2018-Jan-22 03:00N 48°24' W 089°12'0 0.0 020 / 21024.1 -9.1-11.4
2018-Jan-22 02:00N 48°24' W 089°12'0 0.0 020 / 21023.6 -8.9-10.7
2018-Jan-22 01:00N 48°24' W 089°12'0 0.0 360 / 41023.4 -8.7-9.8
2018-Jan-22 00:00N 48°24' W 089°12'0 0.0 030 / 61023.0 -8.3-9.2
2018-Jan-21 23:00N 48°24' W 089°12'0 0.0 360 / 41022.5 -7.5-8.1
2018-Jan-21 22:00N 48°24' W 089°12'0 0.0 030 / 21021.6 -6.5-6.7
2018-Jan-21 21:00N 48°24' W 089°12'0 0.0 350 / 71020.9 -6.1-6.4
2018-Jan-21 20:00N 48°24' W 089°12'0 0.0 040 / 51020.0 -5.0-5.2
2018-Jan-21 19:00N 48°24' W 089°12'0 0.0 360 / 21019.4 -5.0-5.4
2018-Jan-21 17:00N 48°24' W 089°12'0 0.0 050 / 21019.7 -4.4-4.6
2018-Jan-21 15:00N 48°24' W 089°12'0 0.0 270
2018-Jan-21 14:00N 48°24' W 089°12'0 0.0 010 / 21017.7 -5.8-5.9
2018-Jan-21 13:00N 48°24' W 089°12'0 0.0 330 / 21017.1 -5.1-5.3
2018-Jan-21 12:00N 48°24' W 089°12'0 0.0 280 / 11016.9 -5.0-5.2
2018-Jan-21 10:00N 48°24' W 089°12'0 0.0 330 / 31016.7 -5.0-5.2
2018-Jan-21 09:00N 48°24' W 089°12'0 0.0 260 / 11016.5 -5.2-5.3
2018-Jan-21 08:00N 48°24' W 089°12'0 0.0 1016.3 -5.1-5.3
2018-Jan-21 07:00N 48°24' W 089°12'0 0.0 350 / 11015.7 -4.8-5.0
2018-Jan-21 06:00N 48°24' W 089°12'0 0.0 320 / 11015.4 -5.0-5.1
2018-Jan-21 05:00N 48°24' W 089°12'0 0.0 030 / 11015.2 -4.4-4.6
2018-Jan-21 04:00N 48°24' W 089°12'0 0.0 060 / 21014.8 -4.4-5.1
2018-Jan-21 03:00N 48°24' W 089°12'0 0.0 050 / 31015.0 -4.5-5.6
2018-Jan-21 02:00N 48°24' W 089°12'0 0.0 050 / 41014.7 -4.7-6.0
2018-Jan-21 01:00N 48°24' W 089°12'0 0.0 070 / 21014.3 -5.3-6.3
2018-Jan-21 00:00N 48°24' W 089°12'0 0.0 060 / 31013.8 -5.1-6.1
2018-Jan-20 23:00N 48°24' W 089°12'0 0.0 070 / 51013.1 -5.5-6.3
2018-Jan-20 22:00N 48°24' W 089°12'0 0.0 090 / 51012.6 -5.4-6.8
2018-Jan-20 21:00N 48°24' W 089°12'0 0.0 060 / 31012.3 -5.1-6.6
2018-Jan-20 20:00N 48°24' W 089°12'0 0.0 070 / 41011.7 -5.3-6.8
2018-Jan-20 19:00N 48°24' W 089°12'0 0.0 060 / 61011.7 -5.1-6.0
2018-Jan-20 18:00N 48°24' W 089°12'0 0.0 070 / 91011.3 -5.1-6.5
2018-Jan-20 17:00N 48°24' W 089°12'0 0.0 070 / 91011.1 -4.7-5.9
2018-Jan-20 16:00N 48°24' W 089°12'0 0.0 070 / 101009.9 -3.7-5.1
2018-Jan-20 15:00N 48°24' W 089°12'0 0.0 040 / 31008.3 1.7-1.5
2018-Jan-20 14:00N 48°24' W 089°12'0 0.0 340 / 21007.5 2.1-1.7
2018-Jan-20 13:00N 48°24' W 089°12'0 0.0 300 / 31006.3 2.2-1.7
2018-Jan-20 12:00N 48°24' W 089°12'0 0.0 280 / 41004.8 2.3-1.6
2018-Jan-20 11:00N 48°24' W 089°12'0 0.0 290 / 61003.8 2.1-1.6
2018-Jan-20 10:00N 48°24' W 089°12'0 0.0 280 / 111003.0 2.4-1.7
2018-Jan-20 09:00N 48°24' W 089°12'0 0.0 280 / 121002.5 2.8-1.6
2018-Jan-20 08:00N 48°24' W 089°12'0 0.0 290 / 81001.4 2.9-1.3
2018-Jan-20 07:00N 48°24' W 089°12'0 0.0 280 / 101000.0 3.0-1.2
2018-Jan-20 06:00N 48°24' W 089°12'0 0.0 280 / 12998.6 3.5-1.1
2018-Jan-20 05:00N 48°24' W 089°12'0 0.0 280 / 11997.0 4.2 0.3
2018-Jan-20 04:00N 48°24' W 089°12'0 0.0 280 / 12995.6 4.4 0.6
2018-Jan-20 03:00N 48°24' W 089°12'0 0.0 270 / 12994.6 4.6 0.6
2018-Jan-20 02:00N 48°24' W 089°12'0 0.0 280 / 10994.1 4.6 0.5
2018-Jan-20 01:00N 48°24' W 089°12'0 0.0 280 / 12993.7 4.5 0.5
2018-Jan-20 00:00N 48°24' W 089°12'0 0.0 250 / 4993.3 3.0-0.0
2018-Jan-19 23:00N 48°24' W 089°12'0 0.0 080 / 2993.0 0.8-0.9
2018-Jan-19 22:00N 48°24' W 089°12'0 0.0 993.9 0.9-1.0
2018-Jan-19 21:00N 48°24' W 089°12'0 0.0 230 / 1993.6 0.4-1.6
2018-Jan-19 20:00N 48°24' W 089°12'0 0.0 130 / 4994.2 -0.2-1.7
2018-Jan-19 19:00N 48°24' W 089°12'0 0.0 120 / 1994.8 -0.1-1.5
2018-Jan-19 18:00N 48°24' W 089°12'0 0.0 995.6 -0.1-1.4
2018-Jan-19 16:00N 48°24' W 089°12'0 0.0 020 / 1997.3 -1.1-1.9
2018-Jan-19 15:00N 48°24' W 089°12'0 0.0 020 / 4997.3 -1.9-2.5
2018-Jan-19 14:00N 48°24' W 089°12'0 0.0 010 / 3997.6 -3.0-3.4
2018-Jan-19 12:00N 48°24' W 089°12'0 0.0 090 / 21000.7 -4.8-5.0
2018-Jan-19 11:00N 48°24' W 089°12'0 0.0 140 / 11002.1 -4.1-4.3
2018-Jan-19 10:00N 48°24' W 089°12'0 0.0 260 / 21002.7 -3.0-3.6
2018-Jan-19 09:00N 48°24' W 089°12'0 0.0 240 / 11003.2 -3.4-3.8
2018-Jan-19 08:00N 48°24' W 089°12'0 0.0 1004.6 -3.7-4.1
2018-Jan-19 07:00N 48°24' W 089°12'0 0.0 060 / 31004.9 -3.2-3.4
2018-Jan-19 06:00N 48°24' W 089°12'0 0.0 070 / 31005.3 -3.1-3.4
2018-Jan-19 05:00N 48°24' W 089°12'0 0.0 080 / 31005.7 -3.0-3.7
2018-Jan-19 04:00N 48°24' W 089°12'0 0.0 030 / 11006.4 -2.9-3.8
2018-Jan-19 03:00N 48°24' W 089°12'0 0.0 050 / 11006.1 -3.0-3.7
2018-Jan-19 02:00N 48°24' W 089°12'0 0.0 030 / 21007.1 -3.1-4.2
2018-Jan-19 01:00N 48°24' W 089°12'0 0.0 010 / 11007.1 -3.5-4.3
2018-Jan-19 00:00N 48°24' W 089°12'0 0.0 1007.0 -3.0-5.0
2018-Jan-18 23:00N 48°24' W 089°12'0 0.0 260 / 51007.2 -3.0-5.1
2018-Jan-18 22:00N 48°24' W 089°12'0 0.0 270 / 41006.5 -3.2-5.1
2018-Jan-18 21:00N 48°24' W 089°12'0 0.0 250 / 31006.5 -3.4-5.1
2018-Jan-18 20:00N 48°24' W 089°12'0 0.0 250 / 41006.1 -4.0-5.7
2018-Jan-18 19:00N 48°24' W 089°12'0 0.0 280 / 51006.3 -4.8-6.2
2018-Jan-18 18:00N 48°24' W 089°12'0 0.0 250 / 21006.5 -5.2-6.5
2018-Jan-18 17:00N 48°24' W 089°12'0 0.0 290 / 11007.0 -5.4-6.4
2018-Jan-18 16:00N 48°24' W 089°12'0 0.0 280 / 11007.2 -6.4-7.2
2018-Jan-18 15:00N 48°24' W 089°12'0 0.0 310 / 21007.0 -7.5-8.3
2018-Jan-18 14:00N 48°24' W 089°12'0 0.0 350 / 21006.8 -8.2-9.3
2018-Jan-18 13:00N 48°24' W 089°12'0 0.0 030 / 31007.9 -8.9-10.4
2018-Jan-18 12:00N 48°24' W 089°12'0 0.0 050 / 31008.4 -9.9-11.3
2018-Jan-18 11:00N 48°24' W 089°12'0 0.0 050 / 11008.8 -11.5-12.8
2018-Jan-18 10:00N 48°24' W 089°12'0 0.0 040 / 31009.5 -13.4-14.8
2018-Jan-18 09:00N 48°24' W 089°12'0 0.0 1009.8 -11.0-13.0
2018-Jan-18 08:00N 48°24' W 089°12'0 0.0 300 / 51010.1 -8.4-10.9
2018-Jan-18 07:00N 48°24' W 089°12'0 0.0 300 / 31010.1 -8.8-11.5
2018-Jan-18 06:00N 48°24' W 089°12'0 0.0 280 / 41010.5 -8.8-11.6
2018-Jan-18 05:00N 48°24' W 089°12'0 0.0 270 / 41010.5 -7.8-11.1
2018-Jan-18 04:00N 48°24' W 089°12'0 0.0 250 / 11010.9 -7.6-11.0
2018-Jan-18 03:00N 48°24' W 089°12'0 0.0 1010.9 -6.7-10.3
2018-Jan-18 02:00N 48°24' W 089°12'0 0.0 250 / 21011.0 -4.6-10.3
2018-Jan-18 01:00N 48°24' W 089°12'0 0.0 280 / 31010.3 -4.2-10.1
2018-Jan-18 00:00N 48°24' W 089°12'0 0.0 280 / 81009.8 -3.1-10.2
2018-Jan-17 23:00N 48°24' W 089°12'0 0.0 290 / 31009.5 -2.6-10.3
2018-Jan-17 22:00N 48°24' W 089°12'0 0.0 280 / 41009.2 -2.0-10.8
2018-Jan-17 21:00N 48°24' W 089°12'0 0.0 290 / 41008.8 -1.9-11.3
2018-Jan-17 20:00N 48°24' W 089°12'0 0.0 280 / 71009.5 -2.6-11.9
2018-Jan-17 19:00N 48°24' W 089°12'0 0.0 270 / 151010.3 -3.9-13.8
2018-Jan-17 17:00N 48°24' W 089°12'0 0.0 240 / 41013.1 -6.2-15.3
2018-Jan-17 16:00N 48°24' W 089°12'0 0.0 280 / 51014.0 -7.3-14.6
2018-Jan-17 15:00N 48°24' W 089°12'0 0.0 260 / 41014.3 -7.7-14.1
2018-Jan-17 14:00N 48°24' W 089°12'0 0.0 260 / 51015.3 -8.1-14.5
2018-Jan-17 13:00N 48°24' W 089°12'0 0.0 250 / 61016.4 -8.0-15.0
2018-Jan-17 12:00N 48°24' W 089°12'0 0.0 250 / 61017.6 -8.7-15.0
2018-Jan-17 11:00N 48°24' W 089°12'0 0.0 250 / 71018.4 -9.7-15.1
2018-Jan-17 10:00N 48°24' W 089°12'0 0.0 260 / 81019.3 -9.8-15.2
2018-Jan-17 09:00N 48°24' W 089°12'0 0.0 260 / 81020.3 -9.5-15.3
2018-Jan-17 08:00N 48°24' W 089°12'0 0.0 260 / 61020.8 -9.9-15.3
2018-Jan-17 07:00N 48°24' W 089°12'0 0.0 250 / 91022.1 -10.4-16.1
2018-Jan-17 06:00N 48°24' W 089°12'0 0.0 250 / 91023.4 -10.9-16.3
2018-Jan-17 05:00N 48°24' W 089°12'0 0.0 250 / 91025.1 -11.0-16.5
2018-Jan-17 04:00N 48°24' W 089°12'0 0.0 250 / 91026.2 -11.5-16.4
2018-Jan-17 03:00N 48°24' W 089°12'0 0.0 260 / 61027.3 -11.8-16.4
2018-Jan-17 02:00N 48°24' W 089°12'0 0.0 270 / 81028.2 -12.2-16.1
2018-Jan-17 01:00N 48°24' W 089°12'0 0.0 270 / 91029.5 -12.4-15.8
2018-Jan-17 00:00N 48°24' W 089°12'0 0.0 250 / 91030.5 -12.3-15.8
2018-Jan-16 23:00N 48°24' W 089°12'0 0.0 250 / 71031.4 -11.8-15.5
2018-Jan-16 22:00N 48°24' W 089°12'0 0.0 260 / 71032.3 -11.6-15.7
2018-Jan-16 21:00N 48°24' W 089°12'0 0.0 280 / 111033.0 -11.6-16.4
2018-Jan-16 20:00N 48°24' W 089°12'0 0.0 270 / 101033.8 -11.6-15.6
2018-Jan-16 08:00N 48°24' W 089°12'0 0.0 320 / 71038.4 -13.9-16.1
2018-Jan-16 07:00N 48°24' W 089°12'0 0.0 330 / 101038.0 -13.1-15.2
2018-Jan-16 06:00N 48°24' W 089°12'0 0.0 330 / 61038.1 -12.3-14.5
2018-Jan-16 05:00N 48°24' W 089°12'0 0.0 350 / 71038.1 -12.0-14.4
2018-Jan-16 04:00N 48°24' W 089°12'0 0.0 350 / 101037.5 -11.5-14.1
2018-Jan-16 03:00N 48°24' W 089°12'0 0.0 350 / 111037.2 -11.0-13.7
2018-Jan-16 02:00N 48°24' W 089°12'0 0.0 350 / 121036.9 -10.4-13.1
2018-Jan-16 01:00N 48°24' W 089°12'0 0.0 350 / 111036.3 -10.3-12.8
2018-Jan-16 00:00N 48°24' W 089°12'0 0.0 360 / 101035.6 -10.1-12.4
2018-Jan-15 23:00N 48°24' W 089°12'0 0.0 360 / 111034.5 -8.6-10.8
2018-Jan-15 22:00N 48°24' W 089°12'0 0.0 020 / 41033.4 -6.9-9.1
2018-Jan-15 21:00N 48°24' W 089°12'0 0.0 040 / 91032.4 -6.5-8.4
2018-Jan-15 20:00N 48°24' W 089°12'0 0.0 020 / 51031.7 -7.5-8.7
2018-Jan-15 17:00N 48°24' W 089°12'0 0.0 020 / 41031.3 -8.9-10.2
2018-Jan-15 16:00N 48°24' W 089°12'0 0.0 350 / 61030.8 -9.7-11.2
2018-Jan-15 15:00N 48°24' W 089°12'0 0.0 350 / 91030.1 -9.8-11.2
2018-Jan-15 14:00N 48°24' W 089°12'0 0.0 360 / 31029.5 -10.1-11.2
2018-Jan-15 13:00N 48°24' W 089°12'0 0.0 030 / 21028.7 -10.1-11.0
2018-Jan-15 12:00N 48°24' W 089°12'0 0.0 050 / 61027.9 -10.2-11.3
2018-Jan-15 11:00N 48°24' W 089°12'0 0.0 060 / 81026.7 -9.9-10.6
2018-Jan-15 10:00N 48°24' W 089°12'0 0.0 050 / 71026.2 -10.1-10.9
2018-Jan-15 09:00N 48°24' W 089°12'0 0.0 050 / 91025.7 -10.4-11.2
2018-Jan-15 08:00N 48°24' W 089°12'0 0.0 030 / 71025.1 -10.5-11.5
2018-Jan-15 07:00N 48°24' W 089°12'0 0.0 040 / 21024.6 -10.5-11.4
2018-Jan-15 06:00N 48°24' W 089°12'0 0.0 320 / 21024.2 -10.5-11.3
2018-Jan-15 05:00N 48°24' W 089°12'0 0.0 260 / 31023.9 -10.3-11.3
2018-Jan-15 04:00N 48°24' W 089°12'0 0.0 230 / 21023.5 -9.8-10.7
2018-Jan-15 03:00N 48°24' W 089°12'0 0.0 180 / 31023.3 -9.9-11.2
2018-Jan-15 02:00N 48°24' W 089°12'0 0.0 160 / 151022.5 -10.0-10.8
2018-Jan-15 01:00N 48°24' W 089°12'0 0.0 160 / 171022.5 -10.3-11.2
2018-Jan-15 00:00N 48°24' W 089°12'0 0.0 160 / 181022.5 -10.5-11.5
2018-Jan-14 23:00N 48°24' W 089°12'0 0.0 160 / 141022.9 -10.7-11.6
2018-Jan-14 22:00N 48°24' W 089°12'0 0.0 130 / 41023.1 -12.1-13.6
2018-Jan-14 21:00N 48°24' W 089°12'0 0.0 070 / 31023.7 -12.8-14.2
2018-Jan-14 20:00N 48°24' W 089°12'0 0.0 050 / 31024.8 -14.9-16.7
2018-Jan-14 19:00N 48°24' W 089°12'0 0.0 050 / 31026.0 -16.6-18.9
2018-Jan-14 18:00N 48°24' W 089°12'0 0.0 360 / 31027.3 -18.8-21.0
2018-Jan-14 16:00N 48°24' W 089°12'0 0.0 270 / 11030.3 -22.1-24.4
2018-Jan-14 15:00N 48°24' W 089°12'0 0.0 270 / 21030.9 -23.7-26.3
2018-Jan-14 14:00N 48°24' W 089°12'0 0.0 280 / 51031.6 -25.0-27.6
2018-Jan-14 13:00N 48°24' W 089°12'0 0.0 280 / 31032.0 -24.3-26.8
2018-Jan-14 12:00N 48°24' W 089°12'0 0.0 350 / 11033.3 -24.7-27.3
2018-Jan-14 11:00N 48°24' W 089°12'0 0.0 290 / 11033.9 -24.2-26.8
2018-Jan-14 10:00N 48°24' W 089°12'0 0.0 290 / 21034.5 -23.9-26.7
2018-Jan-14 09:00N 48°24' W 089°12'0 0.0 280 / 21035.1 -23.4-26.4
2018-Jan-14 08:00N 48°24' W 089°12'0 0.0 300 / 21035.3 -23.2-26.0
2018-Jan-14 07:00N 48°24' W 089°12'0 0.0 280 / 31035.5 -23.1-25.8
2018-Jan-14 06:00N 48°24' W 089°12'0 0.0 280 / 41036.0 -22.1-25.2
2018-Jan-14 05:00N 48°24' W 089°12'0 0.0 280 / 91036.1 -21.9-25.0
2018-Jan-14 04:00N 48°24' W 089°12'0 0.0 270 / 121036.1 -21.4-24.4
2018-Jan-14 03:00N 48°24' W 089°12'0 0.0 270 / 121036.3 -21.0-23.8
2018-Jan-14 02:00N 48°24' W 089°12'0 0.0 270 / 101036.4 -20.0-23.3
2018-Jan-14 01:00N 48°24' W 089°12'0 0.0 260 / 51036.3 -19.4-22.7
2018-Jan-14 00:00N 48°24' W 089°12'0 0.0 270 / 71036.2 -18.2-22.2
2018-Jan-13 23:00N 48°24' W 089°12'0 0.0 280 / 51036.2 -17.6-21.9
2018-Jan-12 15:00N 48°24' W 089°12'   280 / 81032.4 -26.0

Dump ship's entire track history